sensor_id;sensor_type;location;lat;lon;timestamp;P1;durP1;ratioP1;P2;durP2;ratioP2
66581;SDS011;53438;48.898;2.308;2022-10-16T03:00:20;1.48;;;0.47;;
66581;SDS011;53438;48.898;2.308;2022-10-16T03:02:46;2.77;;;0.67;;
66581;SDS011;53438;48.898;2.308;2022-10-16T03:05:12;2.38;;;0.50;;
66581;SDS011;53438;48.898;2.308;2022-10-16T03:07:38;1.33;;;0.60;;
66581;SDS011;53438;48.898;2.308;2022-10-16T03:10:04;3.00;;;0.40;;
66581;SDS011;53438;48.898;2.308;2022-10-16T03:12:30;4.63;;;0.75;;
66581;SDS011;53438;48.898;2.308;2022-10-16T03:14:55;1.03;;;0.57;;
66581;SDS011;53438;48.898;2.308;2022-10-16T03:17:21;2.08;;;0.43;;
66581;SDS011;53438;48.898;2.308;2022-10-16T03:19:47;1.13;;;0.40;;
66581;SDS011;53438;48.898;2.308;2022-10-16T03:22:12;2.50;;;0.60;;
66581;SDS011;53438;48.898;2.308;2022-10-16T03:24:38;1.83;;;0.43;;
66581;SDS011;53438;48.898;2.308;2022-10-16T03:27:03;1.57;;;0.67;;
66581;SDS011;53438;48.898;2.308;2022-10-16T03:29:28;2.50;;;0.60;;
66581;SDS011;53438;48.898;2.308;2022-10-16T03:31:54;2.53;;;0.50;;
66581;SDS011;53438;48.898;2.308;2022-10-16T03:34:20;2.22;;;0.55;;
66581;SDS011;53438;48.898;2.308;2022-10-16T03:36:46;2.77;;;0.67;;
66581;SDS011;53438;48.898;2.308;2022-10-16T03:39:11;2.03;;;0.80;;
66581;SDS011;53438;48.898;2.308;2022-10-16T03:41:37;4.47;;;1.43;;
66581;SDS011;53438;48.898;2.308;2022-10-16T03:44:02;2.53;;;0.80;;
66581;SDS011;53438;48.898;2.308;2022-10-16T03:46:27;2.47;;;0.50;;
66581;SDS011;53438;48.898;2.308;2022-10-16T03:48:53;2.03;;;0.57;;
66581;SDS011;53438;48.898;2.308;2022-10-16T03:51:18;2.07;;;0.33;;
66581;SDS011;53438;48.898;2.308;2022-10-16T03:53:43;1.63;;;0.40;;
66581;SDS011;53438;48.898;2.308;2022-10-16T03:56:09;3.07;;;0.50;;
66581;SDS011;53438;48.898;2.308;2022-10-16T03:58:34;0.90;;;0.40;;
66581;SDS011;53438;48.898;2.308;2022-10-16T04:00:59;1.00;;;0.50;;
66581;SDS011;53438;48.898;2.308;2022-10-16T04:03:25;2.97;;;0.70;;
66581;SDS011;53438;48.898;2.308;2022-10-16T04:05:50;1.70;;;0.33;;
66581;SDS011;53438;48.898;2.308;2022-10-16T04:08:15;4.13;;;0.70;;
66581;SDS011;53438;48.898;2.308;2022-10-16T04:10:44;4.15;;;0.80;;
66581;SDS011;53438;48.898;2.308;2022-10-16T04:13:10;1.60;;;0.53;;
66581;SDS011;53438;48.898;2.308;2022-10-16T04:15:36;1.73;;;0.45;;
66581;SDS011;53438;48.898;2.308;2022-10-16T04:18:01;3.13;;;0.30;;
66581;SDS011;53438;48.898;2.308;2022-10-16T04:20:26;2.30;;;0.67;;
66581;SDS011;53438;48.898;2.308;2022-10-16T04:22:52;2.13;;;0.50;;
66581;SDS011;53438;48.898;2.308;2022-10-16T04:25:17;1.23;;;0.37;;
66581;SDS011;53438;48.898;2.308;2022-10-16T04:27:43;8.80;;;0.70;;
66581;SDS011;53438;48.898;2.308;2022-10-16T04:30:08;3.03;;;0.40;;
66581;SDS011;53438;48.898;2.308;2022-10-16T04:32:34;0.60;;;0.30;;
66581;SDS011;53438;48.898;2.308;2022-10-16T04:34:59;2.40;;;0.40;;
66581;SDS011;53438;48.898;2.308;2022-10-16T04:37:25;0.90;;;0.40;;
66581;SDS011;53438;48.898;2.308;2022-10-16T04:39:51;1.33;;;0.43;;
66581;SDS011;53438;48.898;2.308;2022-10-16T04:42:17;2.35;;;0.60;;
66581;SDS011;53438;48.898;2.308;2022-10-16T04:44:42;1.90;;;0.33;;
66581;SDS011;53438;48.898;2.308;2022-10-16T04:47:07;1.90;;;0.67;;
66581;SDS011;53438;48.898;2.308;2022-10-16T04:49:33;1.93;;;0.57;;
66581;SDS011;53438;48.898;2.308;2022-10-16T04:51:58;3.83;;;0.40;;
66581;SDS011;53438;48.898;2.308;2022-10-16T04:54:24;2.00;;;0.50;;
66581;SDS011;53438;48.898;2.308;2022-10-16T04:56:49;2.00;;;0.90;;
66581;SDS011;53438;48.898;2.308;2022-10-16T04:59:17;2.13;;;0.60;;
66581;SDS011;53438;48.898;2.308;2022-10-16T05:01:43;3.35;;;0.50;;
66581;SDS011;53438;48.898;2.308;2022-10-16T05:04:08;4.83;;;0.50;;
66581;SDS011;53438;48.898;2.308;2022-10-16T05:06:34;3.58;;;0.50;;
66581;SDS011;53438;48.898;2.308;2022-10-16T05:09:00;1.38;;;0.30;;
66581;SDS011;53438;48.898;2.308;2022-10-16T05:11:26;1.40;;;0.53;;
66581;SDS011;53438;48.898;2.308;2022-10-16T05:13:52;5.07;;;0.60;;
66581;SDS011;53438;48.898;2.308;2022-10-16T05:16:17;3.20;;;0.40;;
66581;SDS011;53438;48.898;2.308;2022-10-16T05:18:42;1.23;;;0.40;;
66581;SDS011;53438;48.898;2.308;2022-10-16T05:21:08;2.50;;;0.37;;
66581;SDS011;53438;48.898;2.308;2022-10-16T05:23:33;2.70;;;0.40;;
66581;SDS011;53438;48.898;2.308;2022-10-16T05:25:59;1.85;;;0.32;;
66581;SDS011;53438;48.898;2.308;2022-10-16T05:28:25;1.47;;;0.30;;
66581;SDS011;53438;48.898;2.308;2022-10-16T05:30:51;1.15;;;0.40;;
66581;SDS011;53438;48.898;2.308;2022-10-16T05:33:19;1.15;;;0.40;;
66581;SDS011;53438;48.898;2.308;2022-10-16T05:35:45;1.97;;;0.63;;
66581;SDS011;53438;48.898;2.308;2022-10-16T05:38:10;2.92;;;0.40;;
66581;SDS011;53438;48.898;2.308;2022-10-16T05:40:35;3.67;;;0.40;;
66581;SDS011;53438;48.898;2.308;2022-10-16T05:43:01;2.17;;;0.57;;
66581;SDS011;53438;48.898;2.308;2022-10-16T05:45:26;4.87;;;0.60;;
66581;SDS011;53438;48.898;2.308;2022-10-16T05:47:51;2.83;;;0.30;;
66581;SDS011;53438;48.898;2.308;2022-10-16T05:50:17;2.40;;;0.40;;
66581;SDS011;53438;48.898;2.308;2022-10-16T05:52:42;3.17;;;0.50;;
66581;SDS011;53438;48.898;2.308;2022-10-16T05:55:08;10.63;;;1.10;;
66581;SDS011;53438;48.898;2.308;2022-10-16T05:57:33;2.78;;;0.52;;
66581;SDS011;53438;48.898;2.308;2022-10-16T05:59:59;1.13;;;0.30;;
66581;SDS011;53438;48.898;2.308;2022-10-16T06:02:24;1.40;;;0.40;;
66581;SDS011;53438;48.898;2.308;2022-10-16T06:04:51;1.10;;;0.40;;
66581;SDS011;53438;48.898;2.308;2022-10-16T06:07:18;1.35;;;0.50;;
66581;SDS011;53438;48.898;2.308;2022-10-16T06:09:43;3.63;;;0.60;;
66581;SDS011;53438;48.898;2.308;2022-10-16T06:12:08;1.33;;;0.53;;
66581;SDS011;53438;48.898;2.308;2022-10-16T06:14:34;2.47;;;0.60;;
66581;SDS011;53438;48.898;2.308;2022-10-16T06:16:59;3.13;;;0.70;;
66581;SDS011;53438;48.898;2.308;2022-10-16T06:19:24;1.77;;;0.45;;
66581;SDS011;53438;48.898;2.308;2022-10-16T06:21:50;2.00;;;0.53;;
66581;SDS011;53438;48.898;2.308;2022-10-16T06:24:15;1.63;;;0.30;;
66581;SDS011;53438;48.898;2.308;2022-10-16T06:26:40;1.90;;;0.97;;
66581;SDS011;53438;48.898;2.308;2022-10-16T06:29:06;1.40;;;0.60;;
66581;SDS011;53438;48.898;2.308;2022-10-16T06:31:31;2.00;;;0.50;;
66581;SDS011;53438;48.898;2.308;2022-10-16T06:33:58;2.67;;;0.70;;
66581;SDS011;53438;48.898;2.308;2022-10-16T06:36:24;1.80;;;0.73;;
66581;SDS011;53438;48.898;2.308;2022-10-16T06:38:50;1.13;;;0.60;;
66581;SDS011;53438;48.898;2.308;2022-10-16T06:41:17;2.40;;;0.70;;
66581;SDS011;53438;48.898;2.308;2022-10-16T06:43:44;2.65;;;0.73;;
66581;SDS011;53438;48.898;2.308;2022-10-16T06:46:11;1.52;;;0.63;;
66581;SDS011;53438;48.898;2.308;2022-10-16T06:48:38;1.57;;;0.50;;
66581;SDS011;53438;48.898;2.308;2022-10-16T06:51:17;3.33;;;0.98;;
66581;SDS011;53438;48.898;2.308;2022-10-16T06:53:45;6.63;;;1.00;;
66581;SDS011;53438;48.898;2.308;2022-10-16T06:56:18;1.33;;;0.50;;
66581;SDS011;53438;48.898;2.308;2022-10-16T06:58:46;1.70;;;0.40;;
66581;SDS011;53438;48.898;2.308;2022-10-16T07:01:12;1.73;;;0.60;;
66581;SDS011;53438;48.898;2.308;2022-10-16T07:03:39;2.43;;;0.50;;
66581;SDS011;53438;48.898;2.308;2022-10-16T07:06:06;2.90;;;0.80;;
66581;SDS011;53438;48.898;2.308;2022-10-16T07:08:33;2.38;;;0.60;;
66581;SDS011;53438;48.898;2.308;2022-10-16T07:11:03;2.65;;;0.40;;
66581;SDS011;53438;48.898;2.308;2022-10-16T07:13:31;4.97;;;1.02;;
66581;SDS011;53438;48.898;2.308;2022-10-16T07:15:58;3.73;;;0.73;;
66581;SDS011;53438;48.898;2.308;2022-10-16T07:18:29;3.25;;;1.05;;
66581;SDS011;53438;48.898;2.308;2022-10-16T07:21:02;4.10;;;0.70;;
66581;SDS011;53438;48.898;2.308;2022-10-16T07:23:29;4.85;;;1.73;;
66581;SDS011;53438;48.898;2.308;2022-10-16T07:25:54;3.73;;;1.20;;
66581;SDS011;53438;48.898;2.308;2022-10-16T07:28:20;3.03;;;0.80;;
66581;SDS011;53438;48.898;2.308;2022-10-16T07:30:45;1.33;;;0.40;;
66581;SDS011;53438;48.898;2.308;2022-10-16T07:33:11;1.70;;;0.77;;
66581;SDS011;53438;48.898;2.308;2022-10-16T07:35:36;1.73;;;0.63;;
66581;SDS011;53438;48.898;2.308;2022-10-16T07:38:01;1.60;;;0.50;;
66581;SDS011;53438;48.898;2.308;2022-10-16T07:40:27;3.73;;;0.80;;
66581;SDS011;53438;48.898;2.308;2022-10-16T07:42:52;1.38;;;0.43;;
66581;SDS011;53438;48.898;2.308;2022-10-16T07:45:18;3.45;;;1.00;;
66581;SDS011;53438;48.898;2.308;2022-10-16T07:47:43;1.27;;;0.57;;
66581;SDS011;53438;48.898;2.308;2022-10-16T07:50:08;2.50;;;0.43;;
66581;SDS011;53438;48.898;2.308;2022-10-16T07:52:34;2.90;;;0.90;;
66581;SDS011;53438;48.898;2.308;2022-10-16T07:54:59;2.73;;;1.20;;
66581;SDS011;53438;48.898;2.308;2022-10-16T07:57:24;3.30;;;0.80;;
66581;SDS011;53438;48.898;2.308;2022-10-16T07:59:50;3.13;;;0.70;;
66581;SDS011;53438;48.898;2.308;2022-10-16T08:02:15;4.00;;;0.43;;
66581;SDS011;53438;48.898;2.308;2022-10-16T08:04:40;2.10;;;0.53;;
66581;SDS011;53438;48.898;2.308;2022-10-16T08:07:06;1.67;;;0.60;;
66581;SDS011;53438;48.898;2.308;2022-10-16T08:09:34;1.60;;;0.50;;
66581;SDS011;53438;48.898;2.308;2022-10-16T08:11:59;1.73;;;0.63;;
66581;SDS011;53438;48.898;2.308;2022-10-16T08:14:25;2.30;;;0.60;;
66581;SDS011;53438;48.898;2.308;2022-10-16T08:16:50;3.23;;;0.60;;
66581;SDS011;53438;48.898;2.308;2022-10-16T08:19:15;1.27;;;0.50;;
66581;SDS011;53438;48.898;2.308;2022-10-16T08:21:41;2.07;;;1.00;;
66581;SDS011;53438;48.898;2.308;2022-10-16T08:24:06;4.63;;;0.83;;
66581;SDS011;53438;48.898;2.308;2022-10-16T08:26:31;2.47;;;1.00;;
66581;SDS011;53438;48.898;2.308;2022-10-16T08:28:57;2.67;;;0.93;;
66581;SDS011;53438;48.898;2.308;2022-10-16T08:31:23;2.03;;;0.87;;
66581;SDS011;53438;48.898;2.308;2022-10-16T08:33:48;2.92;;;0.60;;
66581;SDS011;53438;48.898;2.308;2022-10-16T08:36:14;2.03;;;1.20;;
66581;SDS011;53438;48.898;2.308;2022-10-16T08:38:40;3.78;;;1.00;;
66581;SDS011;53438;48.898;2.308;2022-10-16T08:43:46;3.50;;;0.88;;
66581;SDS011;53438;48.898;2.308;2022-10-16T08:49:19;2.95;;;1.13;;
66581;SDS011;53438;48.898;2.308;2022-10-16T08:51:45;2.90;;;1.10;;
66581;SDS011;53438;48.898;2.308;2022-10-16T08:56:46;3.53;;;1.15;;
66581;SDS011;53438;48.898;2.308;2022-10-16T08:59:12;3.33;;;1.30;;
66581;SDS011;53438;48.898;2.308;2022-10-16T09:01:49;2.30;;;1.05;;
66581;SDS011;53438;48.898;2.308;2022-10-16T09:09:59;1.95;;;1.17;;
66581;SDS011;53438;48.898;2.308;2022-10-16T09:12:43;2.08;;;0.80;;
66581;SDS011;53438;48.898;2.308;2022-10-16T09:18:14;2.45;;;1.13;;
66581;SDS011;53438;48.898;2.308;2022-10-16T09:25:43;3.40;;;1.13;;
66581;SDS011;53438;48.898;2.308;2022-10-16T09:28:10;2.40;;;0.90;;
66581;SDS011;53438;48.898;2.308;2022-10-16T09:30:36;1.87;;;0.77;;
66581;SDS011;53438;48.898;2.308;2022-10-16T09:33:03;1.33;;;0.82;;
66581;SDS011;53438;48.898;2.308;2022-10-16T09:35:45;1.50;;;1.00;;
66581;SDS011;53438;48.898;2.308;2022-10-16T09:40:56;3.23;;;1.23;;
66581;SDS011;53438;48.898;2.308;2022-10-16T09:45:57;2.90;;;2.10;;
66581;SDS011;53438;48.898;2.308;2022-10-16T09:48:30;3.75;;;2.50;;
66581;SDS011;53438;48.898;2.308;2022-10-16T09:51:01;5.50;;;2.90;;
66581;SDS011;53438;48.898;2.308;2022-10-16T09:53:37;3.47;;;2.07;;
66581;SDS011;53438;48.898;2.308;2022-10-16T09:56:09;4.15;;;2.47;;
66581;SDS011;53438;48.898;2.308;2022-10-16T09:58:41;4.75;;;2.22;;
66581;SDS011;53438;48.898;2.308;2022-10-16T10:01:11;3.80;;;2.50;;
66581;SDS011;53438;48.898;2.308;2022-10-16T10:03:39;3.83;;;2.50;;
66581;SDS011;53438;48.898;2.308;2022-10-16T10:06:15;4.00;;;2.40;;
66581;SDS011;53438;48.898;2.308;2022-10-16T10:09:44;3.63;;;2.00;;
66581;SDS011;53438;48.898;2.308;2022-10-16T10:11:52;6.28;;;2.92;;
66581;SDS011;53438;48.898;2.308;2022-10-16T10:14:34;2.85;;;2.55;;
66581;SDS011;53438;48.898;2.308;2022-10-16T10:17:14;3.53;;;2.80;;
66581;SDS011;53438;48.898;2.308;2022-10-16T10:22:21;4.78;;;2.58;;
66581;SDS011;53438;48.898;2.308;2022-10-16T10:24:57;4.88;;;2.70;;
66581;SDS011;53438;48.898;2.308;2022-10-16T10:27:31;4.90;;;2.90;;
66581;SDS011;53438;48.898;2.308;2022-10-16T10:30:21;3.33;;;2.42;;
66581;SDS011;53438;48.898;2.308;2022-10-16T10:41:58;7.03;;;2.40;;
66581;SDS011;53438;48.898;2.308;2022-10-16T10:50:40;4.78;;;2.15;;
66581;SDS011;53438;48.898;2.308;2022-10-16T10:53:10;3.78;;;2.15;;
66581;SDS011;53438;48.898;2.308;2022-10-16T11:01:14;3.93;;;1.67;;
66581;SDS011;53438;48.898;2.308;2022-10-16T11:06:10;3.20;;;2.03;;
66581;SDS011;53438;48.898;2.308;2022-10-16T11:11:20;2.08;;;1.40;;
66581;SDS011;53438;48.898;2.308;2022-10-16T11:16:56;1.55;;;0.70;;
66581;SDS011;53438;48.898;2.308;2022-10-16T11:24:42;1.60;;;0.60;;
66581;SDS011;53438;48.898;2.308;2022-10-16T11:27:12;1.95;;;1.00;;
66581;SDS011;53438;48.898;2.308;2022-10-16T11:29:46;1.95;;;0.70;;
66581;SDS011;53438;48.898;2.308;2022-10-16T11:35:29;1.60;;;0.57;;
66581;SDS011;53438;48.898;2.308;2022-10-16T11:38:03;1.75;;;1.02;;
66581;SDS011;53438;48.898;2.308;2022-10-16T11:40:37;1.02;;;0.60;;
66581;SDS011;53438;48.898;2.308;2022-10-16T11:43:23;1.80;;;0.85;;
66581;SDS011;53438;48.898;2.308;2022-10-16T11:45:57;1.65;;;0.75;;
66581;SDS011;53438;48.898;2.308;2022-10-16T11:48:33;2.60;;;0.70;;
66581;SDS011;53438;48.898;2.308;2022-10-16T11:56:15;1.75;;;0.70;;
66581;SDS011;53438;48.898;2.308;2022-10-16T12:01:33;2.13;;;1.17;;
66581;SDS011;53438;48.898;2.308;2022-10-16T12:09:27;3.63;;;1.52;;
66581;SDS011;53438;48.898;2.308;2022-10-16T12:11:54;3.33;;;1.60;;
66581;SDS011;53438;48.898;2.308;2022-10-16T12:14:22;2.57;;;1.30;;
66581;SDS011;53438;48.898;2.308;2022-10-16T12:16:57;2.45;;;1.23;;
66581;SDS011;53438;48.898;2.308;2022-10-16T12:19:25;4.30;;;2.30;;
66581;SDS011;53438;48.898;2.308;2022-10-16T12:21:54;4.22;;;1.60;;
66581;SDS011;53438;48.898;2.308;2022-10-16T12:27:04;2.97;;;0.70;;
66581;SDS011;53438;48.898;2.308;2022-10-16T12:29:36;1.83;;;0.80;;
66581;SDS011;53438;48.898;2.308;2022-10-16T12:35:19;3.72;;;1.10;;
66581;SDS011;53438;48.898;2.308;2022-10-16T12:37:47;1.10;;;0.65;;
66581;SDS011;53438;48.898;2.308;2022-10-16T12:42:52;2.30;;;0.90;;
66581;SDS011;53438;48.898;2.308;2022-10-16T12:45:25;1.33;;;0.80;;
66581;SDS011;53438;48.898;2.308;2022-10-16T12:47:56;2.47;;;1.08;;
66581;SDS011;53438;48.898;2.308;2022-10-16T12:50:33;2.08;;;0.82;;
66581;SDS011;53438;48.898;2.308;2022-10-16T12:53:01;1.23;;;0.63;;
66581;SDS011;53438;48.898;2.308;2022-10-16T12:55:32;1.80;;;0.70;;
66581;SDS011;53438;48.898;2.308;2022-10-16T13:00:44;3.03;;;1.20;;
66581;SDS011;53438;48.898;2.308;2022-10-16T13:03:31;1.65;;;0.90;;
66581;SDS011;53438;48.898;2.308;2022-10-16T13:06:15;3.13;;;1.40;;
66581;SDS011;53438;48.898;2.308;2022-10-16T13:11:41;2.85;;;1.38;;
66581;SDS011;53438;48.898;2.308;2022-10-16T13:14:33;1.52;;;1.05;;
66581;SDS011;53438;48.898;2.308;2022-10-16T13:25:58;2.47;;;1.40;;
66581;SDS011;53438;48.898;2.308;2022-10-16T13:28:36;2.45;;;1.40;;
66581;SDS011;53438;48.898;2.308;2022-10-16T13:31:04;3.17;;;1.33;;
66581;SDS011;53438;48.898;2.308;2022-10-16T13:36:06;3.65;;;1.60;;
66581;SDS011;53438;48.898;2.308;2022-10-16T13:38:32;4.47;;;2.08;;
66581;SDS011;53438;48.898;2.308;2022-10-16T13:41:00;4.40;;;1.70;;
66581;SDS011;53438;48.898;2.308;2022-10-16T13:43:33;3.00;;;1.73;;
66581;SDS011;53438;48.898;2.308;2022-10-16T13:46:20;2.80;;;1.90;;
66581;SDS011;53438;48.898;2.308;2022-10-16T13:48:59;4.90;;;1.88;;
66581;SDS011;53438;48.898;2.308;2022-10-16T13:51:29;3.20;;;2.13;;
66581;SDS011;53438;48.898;2.308;2022-10-16T13:53:57;3.42;;;1.70;;
66581;SDS011;53438;48.898;2.308;2022-10-16T13:56:25;4.20;;;2.10;;
66581;SDS011;53438;48.898;2.308;2022-10-16T13:58:59;4.07;;;2.10;;
66581;SDS011;53438;48.898;2.308;2022-10-16T14:01:32;4.00;;;2.25;;
66581;SDS011;53438;48.898;2.308;2022-10-16T14:04:01;3.90;;;2.40;;
66581;SDS011;53438;48.898;2.308;2022-10-16T14:06:29;4.60;;;2.22;;
66581;SDS011;53438;48.898;2.308;2022-10-16T14:08:58;6.40;;;2.60;;
66581;SDS011;53438;48.898;2.308;2022-10-16T14:11:26;4.00;;;2.40;;
66581;SDS011;53438;48.898;2.308;2022-10-16T14:13:52;3.88;;;2.75;;
66581;SDS011;53438;48.898;2.308;2022-10-16T14:16:23;5.18;;;3.75;;
66581;SDS011;53438;48.898;2.308;2022-10-16T14:19:14;3.85;;;2.40;;
66581;SDS011;53438;48.898;2.308;2022-10-16T14:21:45;3.30;;;2.10;;
66581;SDS011;53438;48.898;2.308;2022-10-16T14:24:11;6.03;;;2.23;;
66581;SDS011;53438;48.898;2.308;2022-10-16T14:26:44;4.00;;;1.65;;
66581;SDS011;53438;48.898;2.308;2022-10-16T14:29:11;2.63;;;1.95;;
66581;SDS011;53438;48.898;2.308;2022-10-16T14:31:37;2.20;;;1.60;;
66581;SDS011;53438;48.898;2.308;2022-10-16T14:34:04;2.45;;;1.50;;
66581;SDS011;53438;48.898;2.308;2022-10-16T14:36:47;3.27;;;1.97;;
66581;SDS011;53438;48.898;2.308;2022-10-16T14:39:17;4.43;;;2.03;;
66581;SDS011;53438;48.898;2.308;2022-10-16T14:41:46;3.00;;;2.08;;
66581;SDS011;53438;48.898;2.308;2022-10-16T14:44:13;3.55;;;1.77;;
66581;SDS011;53438;48.898;2.308;2022-10-16T14:46:42;2.63;;;1.60;;
66581;SDS011;53438;48.898;2.308;2022-10-16T14:51:34;4.87;;;2.23;;
66581;SDS011;53438;48.898;2.308;2022-10-16T14:54:00;4.00;;;2.47;;
66581;SDS011;53438;48.898;2.308;2022-10-16T14:56:29;3.63;;;1.92;;
66581;SDS011;53438;48.898;2.308;2022-10-16T14:58:55;4.43;;;2.63;;
66581;SDS011;53438;48.898;2.308;2022-10-16T15:01:21;3.43;;;2.13;;
66581;SDS011;53438;48.898;2.308;2022-10-16T15:03:47;4.80;;;1.98;;
66581;SDS011;53438;48.898;2.308;2022-10-16T15:06:15;3.57;;;1.60;;
66581;SDS011;53438;48.898;2.308;2022-10-16T15:08:41;3.95;;;1.83;;
66581;SDS011;53438;48.898;2.308;2022-10-16T15:11:16;3.67;;;2.13;;
66581;SDS011;53438;48.898;2.308;2022-10-16T15:13:43;4.57;;;2.20;;
66581;SDS011;53438;48.898;2.308;2022-10-16T15:16:15;4.45;;;3.00;;
66581;SDS011;53438;48.898;2.308;2022-10-16T15:18:41;2.97;;;1.98;;
66581;SDS011;53438;48.898;2.308;2022-10-16T15:21:07;4.73;;;2.03;;
66581;SDS011;53438;48.898;2.308;2022-10-16T15:23:33;5.13;;;2.53;;
66581;SDS011;53438;48.898;2.308;2022-10-16T15:25:59;3.67;;;2.20;;
66581;SDS011;53438;48.898;2.308;2022-10-16T15:28:24;4.37;;;2.67;;
66581;SDS011;53438;48.898;2.308;2022-10-16T15:30:51;4.20;;;2.47;;
66581;SDS011;53438;48.898;2.308;2022-10-16T15:33:19;3.50;;;2.63;;
66581;SDS011;53438;48.898;2.308;2022-10-16T15:35:47;5.43;;;2.67;;
66581;SDS011;53438;48.898;2.308;2022-10-16T15:38:13;5.10;;;2.60;;
66581;SDS011;53438;48.898;2.308;2022-10-16T15:40:39;5.38;;;3.42;;
66581;SDS011;53438;48.898;2.308;2022-10-16T15:43:05;7.00;;;2.95;;
66581;SDS011;53438;48.898;2.308;2022-10-16T15:45:31;4.70;;;2.90;;
66581;SDS011;53438;48.898;2.308;2022-10-16T15:47:56;6.22;;;3.25;;
66581;SDS011;53438;48.898;2.308;2022-10-16T15:50:22;16.17;;;7.07;;
66581;SDS011;53438;48.898;2.308;2022-10-16T15:52:47;8.38;;;4.47;;
66581;SDS011;53438;48.898;2.308;2022-10-16T15:55:14;5.40;;;3.30;;
66581;SDS011;53438;48.898;2.308;2022-10-16T15:57:40;5.32;;;3.35;;
66581;SDS011;53438;48.898;2.308;2022-10-16T16:00:09;7.28;;;3.55;;
66581;SDS011;53438;48.898;2.308;2022-10-16T16:02:37;4.83;;;2.90;;
66581;SDS011;53438;48.898;2.308;2022-10-16T16:05:03;6.20;;;3.10;;
66581;SDS011;53438;48.898;2.308;2022-10-16T16:07:31;5.97;;;3.15;;
66581;SDS011;53438;48.898;2.308;2022-10-16T16:09:58;6.28;;;2.85;;
66581;SDS011;53438;48.898;2.308;2022-10-16T16:12:23;4.97;;;2.97;;
66581;SDS011;53438;48.898;2.308;2022-10-16T16:14:48;8.50;;;4.27;;
66581;SDS011;53438;48.898;2.308;2022-10-16T16:17:14;5.00;;;3.37;;
66581;SDS011;53438;48.898;2.308;2022-10-16T16:19:39;6.93;;;3.53;;
66581;SDS011;53438;48.898;2.308;2022-10-16T16:22:05;4.78;;;2.60;;
66581;SDS011;53438;48.898;2.308;2022-10-16T16:24:30;5.43;;;2.88;;
66581;SDS011;53438;48.898;2.308;2022-10-16T16:26:56;4.37;;;3.10;;
66581;SDS011;53438;48.898;2.308;2022-10-16T16:29:21;4.77;;;2.80;;
66581;SDS011;53438;48.898;2.308;2022-10-16T16:31:47;5.83;;;3.23;;
66581;SDS011;53438;48.898;2.308;2022-10-16T16:34:12;4.88;;;2.90;;
66581;SDS011;53438;48.898;2.308;2022-10-16T16:36:38;6.23;;;2.83;;
66581;SDS011;53438;48.898;2.308;2022-10-16T16:39:05;5.70;;;3.35;;
66581;SDS011;53438;48.898;2.308;2022-10-16T16:41:31;8.18;;;3.30;;
66581;SDS011;53438;48.898;2.308;2022-10-16T16:44:04;8.20;;;3.08;;
66581;SDS011;53438;48.898;2.308;2022-10-16T16:46:32;4.38;;;2.80;;
66581;SDS011;53438;48.898;2.308;2022-10-16T16:48:58;8.67;;;3.43;;
66581;SDS011;53438;48.898;2.308;2022-10-16T16:51:24;5.20;;;3.15;;
66581;SDS011;53438;48.898;2.308;2022-10-16T16:53:50;5.07;;;2.70;;
66581;SDS011;53438;48.898;2.308;2022-10-16T16:56:17;5.95;;;3.53;;
66581;SDS011;53438;48.898;2.308;2022-10-16T16:58:47;7.25;;;3.63;;
66581;SDS011;53438;48.898;2.308;2022-10-16T17:01:14;8.43;;;4.30;;
66581;SDS011;53438;48.898;2.308;2022-10-16T17:03:41;6.67;;;4.13;;
66581;SDS011;53438;48.898;2.308;2022-10-16T17:06:12;7.03;;;3.78;;
66581;SDS011;53438;48.898;2.308;2022-10-16T17:08:39;7.32;;;3.50;;
66581;SDS011;53438;48.898;2.308;2022-10-16T17:11:05;5.80;;;3.47;;
66581;SDS011;53438;48.898;2.308;2022-10-16T17:13:32;7.23;;;3.30;;
66581;SDS011;53438;48.898;2.308;2022-10-16T17:16:03;5.88;;;3.60;;
66581;SDS011;53438;48.898;2.308;2022-10-16T17:18:30;12.00;;;7.47;;
66581;SDS011;53438;48.898;2.308;2022-10-16T17:20:58;7.72;;;5.18;;
66581;SDS011;53438;48.898;2.308;2022-10-16T17:23:24;6.63;;;4.70;;
66581;SDS011;53438;48.898;2.308;2022-10-16T17:25:49;11.07;;;5.10;;
66581;SDS011;53438;48.898;2.308;2022-10-16T17:28:14;9.10;;;5.03;;
66581;SDS011;53438;48.898;2.308;2022-10-16T17:30:40;8.10;;;4.67;;
66581;SDS011;53438;48.898;2.308;2022-10-16T17:33:06;9.40;;;4.53;;
66581;SDS011;53438;48.898;2.308;2022-10-16T17:35:40;9.63;;;4.45;;
66581;SDS011;53438;48.898;2.308;2022-10-16T17:38:07;8.87;;;4.10;;
66581;SDS011;53438;48.898;2.308;2022-10-16T17:40:34;8.85;;;4.55;;
66581;SDS011;53438;48.898;2.308;2022-10-16T17:42:59;10.27;;;3.70;;
66581;SDS011;53438;48.898;2.308;2022-10-16T17:45:25;7.00;;;3.97;;
66581;SDS011;53438;48.898;2.308;2022-10-16T17:47:50;10.00;;;4.25;;
66581;SDS011;53438;48.898;2.308;2022-10-16T17:50:16;6.03;;;3.63;;
66581;SDS011;53438;48.898;2.308;2022-10-16T17:52:42;7.23;;;3.97;;
66581;SDS011;53438;48.898;2.308;2022-10-16T17:55:07;7.10;;;3.97;;
66581;SDS011;53438;48.898;2.308;2022-10-16T17:57:33;7.00;;;4.13;;
66581;SDS011;53438;48.898;2.308;2022-10-16T17:59:58;6.20;;;5.00;;
66581;SDS011;53438;48.898;2.308;2022-10-16T18:02:26;8.50;;;4.65;;
66581;SDS011;53438;48.898;2.308;2022-10-16T18:04:51;10.97;;;5.07;;
66581;SDS011;53438;48.898;2.308;2022-10-16T18:07:17;7.40;;;4.60;;
66581;SDS011;53438;48.898;2.308;2022-10-16T18:09:42;8.77;;;5.43;;
66581;SDS011;53438;48.898;2.308;2022-10-16T18:12:08;8.73;;;5.55;;
66581;SDS011;53438;48.898;2.308;2022-10-16T18:14:33;8.80;;;5.30;;
66581;SDS011;53438;48.898;2.308;2022-10-16T18:16:59;8.73;;;5.50;;
66581;SDS011;53438;48.898;2.308;2022-10-16T18:19:25;11.35;;;6.00;;
66581;SDS011;53438;48.898;2.308;2022-10-16T18:21:51;10.63;;;6.23;;
66581;SDS011;53438;48.898;2.308;2022-10-16T18:24:17;14.68;;;8.55;;
66581;SDS011;53438;48.898;2.308;2022-10-16T18:26:43;12.13;;;8.15;;
66581;SDS011;53438;48.898;2.308;2022-10-16T18:29:10;12.73;;;8.10;;
66581;SDS011;53438;48.898;2.308;2022-10-16T18:31:36;14.13;;;7.40;;
66581;SDS011;53438;48.898;2.308;2022-10-16T18:34:02;10.63;;;6.30;;
66581;SDS011;53438;48.898;2.308;2022-10-16T18:36:30;10.88;;;6.97;;
66581;SDS011;53438;48.898;2.308;2022-10-16T18:38:57;9.57;;;6.33;;
66581;SDS011;53438;48.898;2.308;2022-10-16T18:41:24;9.85;;;6.57;;
66581;SDS011;53438;48.898;2.308;2022-10-16T18:43:50;11.13;;;6.65;;
66581;SDS011;53438;48.898;2.308;2022-10-16T18:46:17;13.30;;;7.13;;
66581;SDS011;53438;48.898;2.308;2022-10-16T18:48:44;9.70;;;6.75;;
66581;SDS011;53438;48.898;2.308;2022-10-16T18:51:15;15.95;;;6.85;;
66581;SDS011;53438;48.898;2.308;2022-10-16T18:53:44;11.13;;;7.28;;
66581;SDS011;53438;48.898;2.308;2022-10-16T18:56:12;14.02;;;8.48;;
66581;SDS011;53438;48.898;2.308;2022-10-16T18:58:39;14.20;;;8.23;;
66581;SDS011;53438;48.898;2.308;2022-10-16T19:01:08;12.70;;;8.38;;
66581;SDS011;53438;48.898;2.308;2022-10-16T19:03:35;13.00;;;8.38;;
66581;SDS011;53438;48.898;2.308;2022-10-16T19:06:03;11.07;;;7.68;;
66581;SDS011;53438;48.898;2.308;2022-10-16T19:08:32;15.20;;;8.10;;
66581;SDS011;53438;48.898;2.308;2022-10-16T19:11:05;14.57;;;8.23;;
66581;SDS011;53438;48.898;2.308;2022-10-16T19:13:42;12.15;;;8.18;;
66581;SDS011;53438;48.898;2.308;2022-10-16T19:16:10;12.68;;;8.02;;
66581;SDS011;53438;48.898;2.308;2022-10-16T19:18:37;14.32;;;7.80;;
66581;SDS011;53438;48.898;2.308;2022-10-16T19:21:04;13.37;;;7.20;;
66581;SDS011;53438;48.898;2.308;2022-10-16T19:23:30;12.23;;;6.80;;
66581;SDS011;53438;48.898;2.308;2022-10-16T19:25:59;13.73;;;7.80;;
66581;SDS011;53438;48.898;2.308;2022-10-16T19:28:28;13.00;;;7.60;;
66581;SDS011;53438;48.898;2.308;2022-10-16T19:30:54;12.03;;;7.93;;
66581;SDS011;53438;48.898;2.308;2022-10-16T19:33:19;14.53;;;8.53;;
66581;SDS011;53438;48.898;2.308;2022-10-16T19:35:44;15.23;;;8.60;;
66581;SDS011;53438;48.898;2.308;2022-10-16T19:38:10;28.33;;;12.23;;